Aviation Digital Data Service (ADDS)

Output produced by METARs form (1907 UTC 15 October 2018)
found at http://www.aviationweather.gov/metar/data/
 
Forecast for: NTAA (TAHITI-FAAA POLY, WS)
Text: TAF NTAA 151700Z 1518/1624 VRB05KT 9999 FEW023
Forecast period: 1800 UTC 15 October 2018 to 0000 UTC 17 October 2018
Forecast type: FROM: standard forecast or significant change
Winds: variable direction winds at 6 MPH (5 knots; 2.6 m/s)
Visibility: 6 or more miles 10+ km)
Ceiling: at least 12,000 feet AGL
Clouds: few clouds at 2300 feet AGL
Weather: no significant weather forecast for this period